Time;durP1;ratioP1;P1;durP2;ratioP2;P2;SDS_P1;SDS_P2;PMS_P1;PMS_P2;Temp;Humidity;BMP_temperature;BMP_pressure;BME280_temperature;BME280_humidity;BME280_pressure;Samples;Min_cycle;Max_cycle;Signal;HPM_P1;HPM_P2
2021/06/21 00:00:19;;;;;;;4.60;4.30;;;;;;;20.23;88.07;99580.66;5052744;28;20211;-71
2021/06/21 00:02:44;;;;;;;4.60;4.30;;;;;;;20.24;88.88;99582.22;5035006;28;20635;-71
2021/06/21 00:05:13;;;;;;;4.77;4.37;;;;;;;20.17;89.21;99575.50;5068156;28;20243;-71
2021/06/21 00:07:38;;;;;;;4.67;4.37;;;;;;;20.17;89.06;99581.06;5052529;28;20264;-71
2021/06/21 00:10:06;;;;;;;4.87;4.47;;;;;;;20.29;90.52;99588.19;5052730;28;20608;-71
2021/06/21 00:12:32;;;;;;;4.53;4.23;;;;;;;20.19;89.46;99584.22;5052546;28;20204;-72
2021/06/21 00:14:57;;;;;;;4.90;4.40;;;;;;;20.02;91.51;99593.34;5052596;28;20265;-71
2021/06/21 00:17:22;;;;;;;5.30;4.90;;;;;;;19.86;92.26;99585.41;5052365;28;20179;-72
2021/06/21 00:19:48;;;;;;;4.80;4.47;;;;;;;19.90;94.12;99582.63;5052322;28;20187;-71
2021/06/21 00:22:14;;;;;;;4.07;3.77;;;;;;;19.75;95.45;99581.03;5052311;28;20210;-71
2021/06/21 00:24:41;;;;;;;5.40;5.00;;;;;;;19.66;95.17;99580.63;5067839;28;20179;-72
2021/06/21 00:27:07;;;;;;;5.13;4.73;;;;;;;19.57;97.46;99569.94;5052072;28;20183;-72
2021/06/21 00:29:32;;;;;;;5.90;5.30;;;;;;;19.49;97.05;99558.00;5052298;28;20183;-71
2021/06/21 00:31:57;;;;;;;5.13;4.80;;;;;;;19.44;97.82;99550.09;5052153;28;20215;-72
2021/06/21 00:34:23;;;;;;;6.87;5.20;;;;;;;19.57;98.86;99551.34;5052169;28;20746;-72
2021/06/21 00:36:48;;;;;;;5.10;4.70;;;;;;;19.53;99.57;99544.19;5051958;28;20254;-72
2021/06/21 00:39:13;;;;;;;5.37;4.97;;;;;;;19.31;98.52;99548.88;5052101;28;20178;-72
2021/06/21 00:41:39;;;;;;;5.20;4.80;;;;;;;19.26;100.00;99554.81;5052130;28;20278;-72
2021/06/21 00:44:05;;;;;;;5.17;4.77;;;;;;;19.19;100.00;99554.78;5052179;28;20186;-72
2021/06/21 00:46:30;;;;;;;6.00;5.30;;;;;;;19.20;100.00;99553.59;5051811;28;20262;-72
2021/06/21 00:48:56;;;;;;;6.10;5.50;;;;;;;19.10;100.00;99551.59;5051812;28;20271;-72
2021/06/21 00:51:22;;;;;;;4.63;4.23;;;;;;;19.11;100.00;99562.28;5051972;28;20655;-72
2021/06/21 00:53:47;;;;;;;6.27;5.77;;;;;;;19.06;100.00;99553.53;5051862;28;20190;-73
2021/06/21 00:56:13;;;;;;;5.83;5.40;;;;;;;19.16;100.00;99572.19;5051817;28;20517;-72
2021/06/21 00:58:39;;;;;;;5.80;5.33;;;;;;;19.19;100.00;99568.63;5051673;28;20179;-72
2021/06/21 01:01:05;;;;;;;6.30;5.63;;;;;;;19.26;100.00;99576.97;5051531;28;20191;-73
2021/06/21 01:03:30;;;;;;;5.67;5.17;;;;;;;19.33;100.00;99582.50;5051623;28;20538;-72
2021/06/21 01:05:56;;;;;;;5.93;5.43;;;;;;;19.41;100.00;99581.34;5051402;28;20619;-73
2021/06/21 01:08:21;;;;;;;5.63;5.23;;;;;;;19.32;100.00;99581.72;5051591;28;20178;-73
2021/06/21 01:10:49;;;;;;;5.90;5.40;;;;;;;19.30;100.00;99586.84;5066862;28;20175;-72
2021/06/21 01:13:36;;;;;;;5.67;5.17;;;;;;;19.22;100.00;99573.38;5051264;28;20199;-72
2021/06/21 01:16:21;;;;;;;6.23;5.67;;;;;;;19.10;100.00;99585.63;5051313;28;20190;-72
2021/06/21 01:22:10;;;;;;;6.60;5.93;;;;;;;19.03;100.00;99577.25;4989225;28;20283;-75
2021/06/21 01:25:03;;;;;;;7.20;6.60;;;;;;;19.03;100.00;99572.53;4991797;28;20193;-76
2021/06/21 01:27:40;;;;;;;7.57;7.03;;;;;;;18.79;100.00;99569.63;4991977;28;20178;-75
2021/06/21 01:30:09;;;;;;;8.67;7.87;;;;;;;18.80;100.00;99560.94;4991739;28;20540;-75
2021/06/21 01:32:49;;;;;;;6.80;6.30;;;;;;;19.00;100.00;99556.69;4991853;28;20204;-75
2021/06/21 01:35:49;;;;;;;7.50;6.90;;;;;;;18.97;100.00;99540.06;4991440;28;20200;-76
2021/06/21 01:38:22;;;;;;;7.17;6.60;;;;;;;18.89;100.00;99535.69;4979549;28;20247;-76
2021/06/21 01:40:53;;;;;;;7.87;7.27;;;;;;;18.67;100.00;99523.75;4991580;28;20223;-76
2021/06/21 01:43:23;;;;;;;7.23;6.63;;;;;;;18.80;100.00;99530.50;4992127;28;20181;-76
2021/06/21 01:45:49;;;;;;;7.57;6.97;;;;;;;18.89;100.00;99519.88;4991784;28;20186;-75
2021/06/21 01:48:16;;;;;;;7.63;6.90;;;;;;;18.95;100.00;99515.56;4991572;28;20675;-75
2021/06/21 01:50:42;;;;;;;6.67;6.13;;;;;;;18.91;100.00;99503.66;4991405;28;20207;-76
2021/06/21 01:53:12;;;;;;;7.37;6.77;;;;;;;18.84;100.00;99487.03;4991506;28;20209;-75
2021/06/21 01:55:42;;;;;;;7.90;7.23;;;;;;;18.64;100.00;99477.47;4991653;28;20185;-75
2021/06/21 01:58:10;;;;;;;7.93;7.23;;;;;;;18.70;100.00;99478.69;4991569;28;20182;-74
2021/06/21 02:00:37;;;;;;;8.33;7.27;;;;;;;18.76;100.00;99463.28;4991240;28;20240;-75
2021/06/21 02:03:03;;;;;;;7.63;6.90;;;;;;;18.65;100.00;99462.44;4991326;28;20247;-75
2021/06/21 02:05:31;;;;;;;8.40;7.60;;;;;;;18.59;100.00;99480.59;4991917;28;20281;-75
2021/06/21 02:07:57;;;;;;;8.03;7.33;;;;;;;18.61;100.00;99478.22;4991499;28;20181;-75
2021/06/21 02:10:23;;;;;;;7.40;6.80;;;;;;;18.52;100.00;99484.13;4991275;28;20181;-75
2021/06/21 02:12:49;;;;;;;8.13;7.43;;;;;;;18.54;100.00;99461.59;4991477;28;20201;-75
2021/06/21 02:15:16;;;;;;;8.63;7.83;;;;;;;18.54;100.00;99456.06;4991668;28;20176;-75
2021/06/21 02:17:42;;;;;;;7.90;7.30;;;;;;;18.55;100.00;99460.41;4991468;28;20304;-75
2021/06/21 02:20:10;;;;;;;7.83;7.23;;;;;;;18.38;100.00;99465.47;4990565;28;20184;-75
2021/06/21 02:22:36;;;;;;;8.97;8.07;;;;;;;18.46;100.00;99459.97;4991425;28;20262;-75
2021/06/21 02:25:05;;;;;;;8.10;7.33;;;;;;;18.62;100.00;99468.72;4991689;28;20217;-75
2021/06/21 02:27:32;;;;;;;8.73;7.97;;;;;;;18.52;100.00;99491.63;4991388;28;20584;-75
2021/06/21 02:29:59;;;;;;;9.10;8.13;;;;;;;18.70;100.00;99489.75;4991092;28;20240;-76
2021/06/21 02:32:25;;;;;;;8.50;7.90;;;;;;;18.67;100.00;99488.56;4991227;28;20243;-75
2021/06/21 02:34:52;;;;;;;8.17;7.57;;;;;;;18.47;100.00;99489.22;4990059;28;20286;-75
2021/06/21 02:37:17;;;;;;;9.20;8.40;;;;;;;18.64;100.00;99492.09;4991290;28;20180;-75
2021/06/21 02:39:43;;;;;;;11.20;8.10;;;;;;;18.85;100.00;99490.59;4990938;28;20165;-75
2021/06/21 02:42:09;;;;;;;11.33;8.00;;;;;;;19.02;100.00;99487.09;4991235;28;20174;-75
2021/06/21 02:44:34;;;;;;;7.93;7.23;;;;;;;18.89;100.00;99489.41;4991046;28;20174;-74
2021/06/21 02:47:01;;;;;;;7.77;7.17;;;;;;;19.02;100.00;99487.09;4993519;28;20170;-75
2021/06/21 02:49:26;;;;;;;8.63;7.93;;;;;;;18.87;100.00;99482.69;4994626;28;20169;-75
2021/06/21 02:52:02;;;;;;;8.13;7.43;;;;;;;18.87;100.00;99482.69;4994729;28;20356;-75
2021/06/21 02:54:46;;;;;;;6.97;6.47;;;;;;;18.81;100.00;99482.28;4995031;28;20228;-75
2021/06/21 02:57:26;;;;;;;7.13;6.53;;;;;;;18.64;100.00;99477.47;4994954;28;20188;-75
2021/06/21 02:59:53;;;;;;;7.73;7.13;;;;;;;18.47;100.00;99475.38;4998144;28;20648;-75
2021/06/21 03:02:20;;;;;;;8.60;7.80;;;;;;;18.37;100.00;99474.97;4999658;28;20177;-74
2021/06/21 03:04:47;;;;;;;9.23;8.43;;;;;;;18.47;100.00;99478.16;4999320;28;20235;-75
2021/06/21 03:07:15;;;;;;;9.30;8.50;;;;;;;18.59;100.00;99473.06;4994742;28;20644;-75
2021/06/21 03:09:43;;;;;;;8.70;7.80;;;;;;;18.80;100.00;99466.06;4994456;28;20200;-75
2021/06/21 03:12:10;;;;;;;8.63;7.83;;;;;;;19.02;100.00;99467.69;4994738;28;20256;-74
2021/06/21 03:14:36;;;;;;;8.27;7.50;;;;;;;19.16;100.00;99469.72;4993313;28;20644;-75
2021/06/21 03:17:06;;;;;;;7.30;6.70;;;;;;;19.26;100.00;99475.28;4994615;28;20169;-75
2021/06/21 03:19:32;;;;;;;8.00;7.30;;;;;;;19.23;100.00;99483.56;4993804;28;20224;-75
2021/06/21 03:21:58;;;;;;;8.37;7.67;;;;;;;19.14;100.00;99475.66;4994593;28;20166;-75
2021/06/21 03:24:24;;;;;;;8.40;7.70;;;;;;;19.28;100.00;99478.44;4993125;28;20663;-75
2021/06/21 03:26:49;;;;;;;9.00;8.30;;;;;;;19.33;100.00;99468.94;4994347;28;20177;-75
2021/06/21 03:29:20;;;;;;;8.53;7.93;;;;;;;19.44;100.00;99468.97;4994250;28;20173;-75
2021/06/21 03:31:49;;;;;;;7.93;7.27;;;;;;;19.24;100.00;99465.75;4993152;28;20216;-75
2021/06/21 03:34:17;;;;;;;7.40;6.80;;;;;;;19.06;100.00;99467.72;4995101;28;20178;-74
2021/06/21 03:36:42;;;;;;;7.67;7.07;;;;;;;19.03;100.00;99461.78;5000248;28;20185;-74
2021/06/21 03:39:08;;;;;;;7.93;7.23;;;;;;;19.27;100.00;99457.47;4995281;28;20235;-75
2021/06/21 03:41:34;;;;;;;7.27;6.77;;;;;;;19.40;100.00;99452.34;4994102;28;20209;-74
2021/06/21 03:44:00;;;;;;;7.50;6.90;;;;;;;19.39;100.00;99449.97;4993992;28;20218;-74
2021/06/21 03:46:26;;;;;;;6.67;6.17;;;;;;;19.39;100.00;99434.13;4993818;28;20208;-74
2021/06/21 03:48:51;;;;;;;6.33;5.83;;;;;;;19.39;100.00;99434.13;4993431;28;20600;-73
2021/06/21 03:51:18;;;;;;;7.70;7.10;;;;;;;19.38;100.00;99431.72;4994008;28;20203;-74
2021/06/21 03:53:44;;;;;;;7.67;7.07;;;;;;;19.02;100.00;99415.09;4992844;28;20581;-74
2021/06/21 03:56:09;;;;;;;7.43;6.83;;;;;;;18.57;100.00;99411.03;4992453;28;20182;-74
2021/06/21 03:58:34;;;;;;;7.53;6.93;;;;;;;18.37;100.00;99410.53;4993564;28;20257;-74
2021/06/21 04:01:00;;;;;;;7.20;6.60;;;;;;;18.46;100.00;99404.66;4993455;28;20573;-73
2021/06/21 04:03:25;;;;;;;8.47;7.67;;;;;;;18.40;100.00;99402.28;4992384;28;20181;-74
2021/06/21 04:05:51;;;;;;;6.80;6.23;;;;;;;18.33;100.00;99410.53;4993639;28;20181;-74
2021/06/21 04:08:17;;;;;;;8.03;7.33;;;;;;;18.52;100.00;99414.97;4993438;28;20176;-74
2021/06/21 04:10:44;;;;;;;6.80;6.30;;;;;;;18.75;100.00;99424.94;4992339;28;20188;-74
2021/06/21 04:13:11;;;;;;;7.93;7.27;;;;;;;18.87;100.00;99414.28;4993416;28;20205;-74
2021/06/21 04:15:37;;;;;;;7.17;6.63;;;;;;;18.53;100.00;99413.78;4992051;28;20514;-74
2021/06/21 04:18:05;;;;;;;6.93;6.43;;;;;;;18.69;100.00;99414.25;4993321;28;20184;-74
2021/06/21 04:20:30;;;;;;;7.23;6.63;;;;;;;18.82;100.00;99413.88;4992594;28;20193;-74
2021/06/21 04:22:57;;;;;;;7.57;6.97;;;;;;;18.97;100.00;99412.72;4992021;28;20181;-74
2021/06/21 04:25:23;;;;;;;7.23;6.63;;;;;;;18.81;100.00;99415.88;4993321;28;20260;-74
2021/06/21 04:27:49;;;;;;;7.10;6.60;;;;;;;18.64;100.00;99411.06;4993429;28;20640;-74
2021/06/21 04:30:17;;;;;;;7.10;6.60;;;;;;;18.60;100.00;99415.75;4993105;28;20321;-74
2021/06/21 04:32:43;;;;;;;7.63;7.03;;;;;;;18.79;100.00;99401.59;4991683;28;20216;-74
2021/06/21 04:35:12;;;;;;;7.30;6.80;;;;;;;18.64;100.00;99400.78;4993075;28;20169;-75
2021/06/21 04:37:38;;;;;;;6.73;6.23;;;;;;;18.64;100.00;99394.44;4992963;28;20176;-74
2021/06/21 04:40:05;;;;;;;8.90;7.43;;;;;;;18.64;100.00;99402.75;4991345;28;20235;-74
2021/06/21 04:42:30;;;;;;;6.50;5.90;;;;;;;18.76;100.00;99398.84;4992897;28;20173;-74
2021/06/21 04:44:56;;;;;;;6.43;5.93;;;;;;;19.05;100.00;99406.00;4992736;28;20181;-74
2021/06/21 04:47:24;;;;;;;7.93;7.17;;;;;;;19.02;100.00;99407.59;4993010;28;20176;-74
2021/06/21 04:49:54;;;;;;;6.63;6.13;;;;;;;18.66;100.00;99405.91;4991193;28;20177;-73
2021/06/21 04:52:22;;;;;;;6.37;5.80;;;;;;;18.67;100.00;99404.75;4991327;28;20611;-74
2021/06/21 04:54:52;;;;;;;6.07;5.67;;;;;;;18.89;100.00;99397.28;4992638;28;20188;-73
2021/06/21 04:57:17;;;;;;;6.07;5.67;;;;;;;18.96;100.00;99397.31;4992547;28;20177;-74
2021/06/21 04:59:44;;;;;;;6.70;6.20;;;;;;;18.93;100.00;99387.78;4991365;28;20185;-73
2021/06/21 05:02:10;;;;;;;6.00;5.50;;;;;;;19.11;100.00;99389.81;4991427;28;20216;-73
2021/06/21 05:04:36;;;;;;;6.77;6.23;;;;;;;19.19;100.00;99394.94;4992419;28;20628;-73
2021/06/21 05:07:03;;;;;;;7.03;6.43;;;;;;;18.98;100.00;99387.41;4992591;28;20644;-73
2021/06/21 05:09:28;;;;;;;6.10;5.27;;;;;;;18.86;100.00;99390.56;4991420;28;20209;-73
2021/06/21 05:11:54;;;;;;;5.73;5.30;;;;;;;19.07;100.00;99389.00;4992221;28;20711;-73
2021/06/21 05:14:19;;;;;;;5.57;5.17;;;;;;;19.29;100.00;99383.09;4974807;28;20664;-73
2021/06/21 05:16:45;;;;;;;4.83;4.47;;;;;;;19.33;100.00;99386.63;4992340;28;20181;-73
2021/06/21 05:19:10;;;;;;;4.87;4.47;;;;;;;19.21;100.00;99389.00;4991855;28;20264;-73
2021/06/21 05:21:36;;;;;;;4.47;4.03;;;;;;;19.39;100.00;99391.78;4990536;28;20331;-74
2021/06/21 05:24:02;;;;;;;3.60;3.40;;;;;;;19.52;100.00;99404.03;4992144;28;20173;-74
2021/06/21 05:26:29;;;;;;;4.43;4.13;;;;;;;19.70;100.00;99395.75;4992297;28;20279;-74
2021/06/21 05:28:54;;;;;;;4.50;4.10;;;;;;;19.76;100.00;99394.94;4990456;28;20184;-74
2021/06/21 05:31:19;;;;;;;4.00;3.70;;;;;;;19.70;100.00;99401.28;4991916;28;20537;-74
2021/06/21 05:33:45;;;;;;;3.70;3.50;;;;;;;19.78;100.00;99402.84;4992007;28;20177;-74
2021/06/21 05:36:11;;;;;;;3.77;3.47;;;;;;;19.81;100.00;99407.59;4991872;28;20179;-74
2021/06/21 05:38:37;;;;;;;3.30;3.10;;;;;;;19.95;100.00;99404.78;4991772;28;20177;-74
2021/06/21 05:41:02;;;;;;;4.03;3.80;;;;;;;19.78;100.00;99406.41;4991577;28;20181;-74
2021/06/21 05:43:28;;;;;;;4.33;4.03;;;;;;;20.03;100.00;99406.34;4991347;28;20192;-73
2021/06/21 05:45:54;;;;;;;3.87;3.60;;;;;;;20.07;100.00;99396.03;4991289;28;20643;-74
2021/06/21 05:48:19;;;;;;;3.77;3.50;;;;;;;19.84;100.00;99379.09;4991624;28;20180;-74
2021/06/21 05:50:45;;;;;;;3.47;3.27;;;;;;;19.89;100.00;99385.00;4991443;28;20181;-74
2021/06/21 05:53:10;;;;;;;3.90;3.60;;;;;;;19.82;100.00;99379.50;4988284;28;20308;-74
2021/06/21 05:55:36;;;;;;;4.07;3.80;;;;;;;19.83;100.00;99383.06;4991385;28;20270;-74
2021/06/21 05:58:01;;;;;;;4.40;4.10;;;;;;;19.91;100.00;99367.97;4991778;28;20185;-74
2021/06/21 06:00:27;;;;;;;4.60;4.30;;;;;;;20.26;100.00;99378.16;4973749;28;20239;-74
2021/06/21 06:02:52;;;;;;;4.00;3.70;;;;;;;20.29;100.00;99376.56;4991795;28;20185;-74
2021/06/21 06:05:18;;;;;;;3.70;3.50;;;;;;;20.28;100.00;99386.88;4991451;28;20184;-74
2021/06/21 06:07:44;;;;;;;4.20;3.90;;;;;;;20.53;100.00;99391.53;4991551;28;20181;-73
2021/06/21 06:10:10;;;;;;;3.97;3.57;;;;;;;20.54;99.81;99396.66;4991230;28;20675;-74
2021/06/21 06:12:36;;;;;;;3.57;3.27;;;;;;;20.44;99.29;99397.53;4991271;28;20301;-74
2021/06/21 06:15:02;;;;;;;3.50;3.30;;;;;;;20.38;100.00;99396.31;4991454;28;20332;-74
2021/06/21 06:17:27;;;;;;;3.43;3.23;;;;;;;20.32;100.00;99390.41;4991294;28;20542;-73
2021/06/21 06:19:53;;;;;;;4.20;3.80;;;;;;;20.31;100.00;99394.38;4991395;28;20220;-74
2021/06/21 06:22:19;;;;;;;3.90;3.60;;;;;;;20.27;100.00;99399.16;4995339;28;20208;-74
2021/06/21 06:24:44;;;;;;;3.60;3.40;;;;;;;20.32;100.00;99395.16;4995617;28;20192;-73
2021/06/21 06:27:09;;;;;;;4.40;4.10;;;;;;;20.32;100.00;99395.94;4993995;28;20189;-74
2021/06/21 06:29:35;;;;;;;3.00;2.80;;;;;;;20.27;100.00;99387.28;4993804;28;20182;-75
2021/06/21 06:32:04;;;;;;;3.87;3.57;;;;;;;20.03;100.00;99388.94;4995185;28;20667;-74
2021/06/21 06:34:29;;;;;;;3.93;3.63;;;;;;;19.81;100.00;99388.97;4995191;28;20181;-74
2021/06/21 06:36:55;;;;;;;4.13;3.83;;;;;;;20.17;100.00;99383.34;4995132;28;20181;-74
2021/06/21 06:39:21;;;;;;;3.33;3.13;;;;;;;20.40;100.00;99389.19;4994891;28;20201;-74
2021/06/21 06:41:47;;;;;;;4.10;3.70;;;;;;;20.29;100.00;99387.66;4993759;28;20211;-74
2021/06/21 06:44:12;;;;;;;3.43;3.23;;;;;;;20.44;100.00;99392.75;4993085;28;20185;-78
2021/06/21 06:46:38;;;;;;;3.73;3.53;;;;;;;20.56;100.00;99388.75;4994724;28;20199;-76
2021/06/21 06:49:03;;;;;;;3.63;3.03;;;;;;;20.40;99.79;99391.97;4994646;28;20212;-78
2021/06/21 06:51:34;;;;;;;3.57;3.10;;;;;;;20.64;100.00;99384.72;4994573;28;20197;-76
2021/06/21 06:54:05;;;;;;;3.60;2.90;;;;;;;20.55;100.00;99381.63;4995151;28;20175;-75
2021/06/21 06:59:16;;;;;;;3.50;3.20;;;;;;;20.82;100.00;99376.28;4994461;28;20236;-75
2021/06/21 07:01:42;;;;;;;3.40;3.20;;;;;;;20.93;99.50;99368.66;4994818;28;20173;-75
2021/06/21 07:04:07;;;;;;;3.40;3.20;;;;;;;20.78;98.55;99376.31;4994762;28;20205;-74
2021/06/21 07:06:33;;;;;;;2.90;2.70;;;;;;;20.84;99.91;99370.34;4994546;28;20208;-75
2021/06/21 07:08:58;;;;;;;3.23;2.93;;;;;;;20.90;99.65;99383.38;4994587;28;20799;-75
2021/06/21 07:11:23;;;;;;;3.03;2.83;;;;;;;20.98;97.55;99386.91;4994489;28;20177;-75
2021/06/21 07:13:49;;;;;;;3.07;2.80;;;;;;;21.00;97.32;99379.75;4994434;28;20181;-75
2021/06/21 07:16:15;;;;;;;3.43;3.13;;;;;;;21.05;97.25;99384.06;4976925;28;20182;-75
2021/06/21 07:18:40;;;;;;;3.07;2.83;;;;;;;21.10;97.80;99384.41;4994231;28;20228;-73
2021/06/21 07:21:05;;;;;;;3.20;3.00;;;;;;;21.01;97.33;99374.97;4993519;28;20554;-75
2021/06/21 07:23:31;;;;;;;3.33;3.13;;;;;;;20.63;98.01;99379.56;4993745;28;20185;-75
2021/06/21 07:25:57;;;;;;;3.87;3.57;;;;;;;20.28;100.00;99378.53;4993791;28;20183;-75
2021/06/21 07:28:22;;;;;;;3.33;3.03;;;;;;;20.39;100.00;99384.03;4993630;28;20213;-75
2021/06/21 07:30:47;;;;;;;4.37;3.20;;;;;;;20.56;100.00;99376.84;4976045;28;20216;-75
2021/06/21 07:33:13;;;;;;;4.07;3.80;;;;;;;21.01;100.00;99374.97;4992969;28;20201;-75
2021/06/21 07:35:41;;;;;;;4.73;3.63;;;;;;;21.22;100.00;99377.56;4993698;28;20205;-75
2021/06/21 07:38:08;;;;;;;3.60;3.27;;;;;;;21.33;99.22;99381.09;4975946;28;20655;-75
2021/06/21 07:40:35;;;;;;;3.43;3.23;;;;;;;21.49;97.92;99390.88;4993273;28;20173;-75
2021/06/21 07:43:01;;;;;;;3.10;2.90;;;;;;;21.54;97.79;99380.09;4993532;28;20184;-74
2021/06/21 07:45:26;;;;;;;3.07;2.87;;;;;;;21.58;95.92;99394.78;4975965;28;20521;-75
2021/06/21 07:47:54;;;;;;;2.90;2.70;;;;;;;21.58;97.95;99394.00;4975896;28;20173;-75
2021/06/21 07:50:19;;;;;;;3.00;2.80;;;;;;;21.44;98.05;99385.78;4990186;28;20181;-75
2021/06/21 07:52:45;;;;;;;2.27;2.17;;;;;;;21.46;97.79;99392.50;4975399;28;20197;-74
2021/06/21 07:55:10;;;;;;;2.53;2.33;;;;;;;21.08;93.54;99391.56;4992815;28;20173;-75
2021/06/21 07:57:36;;;;;;;2.83;2.10;;;;;;;21.03;94.76;99390.03;4992385;28;20169;-75
2021/06/21 08:00:01;;;;;;;2.80;2.60;;;;;;;21.05;97.72;99397.94;4990684;28;20185;-75
2021/06/21 08:02:26;;;;;;;3.60;2.87;;;;;;;21.21;99.83;99397.44;4977478;28;20174;-75
2021/06/21 08:04:52;;;;;;;2.63;2.43;;;;;;;21.27;97.73;99388.31;4993061;28;20197;-75
2021/06/21 08:07:17;;;;;;;2.07;1.73;;;;;;;21.24;92.17;99391.06;4992491;28;20200;-75
2021/06/21 08:09:43;;;;;;;2.53;2.30;;;;;;;21.25;93.68;99382.34;4992676;28;20652;-75
2021/06/21 08:12:08;;;;;;;1.90;1.80;;;;;;;21.43;95.27;99386.97;4993030;28;20204;-75
2021/06/21 08:14:34;;;;;;;3.83;1.23;;;;;;;21.44;92.84;99399.69;4992975;28;20285;-75
2021/06/21 08:16:59;;;;;;;3.50;1.40;;;;;;;21.46;92.73;99389.72;4992985;28;20598;-75
2021/06/21 08:19:25;;;;;;;1.43;0.70;;;;;;;21.57;90.09;99397.97;4992464;28;20174;-76
2021/06/21 08:21:50;;;;;;;1.10;1.10;;;;;;;21.63;87.50;99396.31;4992698;28;20178;-75
2021/06/21 08:24:16;;;;;;;1.80;1.30;;;;;;;21.61;88.12;99393.16;4992142;28;20648;-75
2021/06/21 08:26:41;;;;;;;1.50;1.30;;;;;;;21.68;89.17;99401.41;4992382;28;20622;-76
2021/06/21 08:29:07;;;;;;;1.97;0.80;;;;;;;;;;4992290;28;20806;-75
2021/06/21 08:31:32;;;;;;;1.57;1.30;;;;;;;21.34;85.56;99391.00;4974191;28;20216;-76
2021/06/21 08:33:58;;;;;;;1.00;1.00;;;;;;;21.42;89.50;99390.97;4974876;28;20205;-75
2021/06/21 08:36:24;;;;;;;1.53;1.30;;;;;;;21.54;86.98;99396.00;4982403;28;20184;-76
2021/06/21 08:38:49;;;;;;;1.73;1.50;;;;;;;21.60;86.10;99394.38;4986399;28;20165;-74
2021/06/21 08:41:14;;;;;;;1.10;0.90;;;;;;;21.65;82.63;99396.69;4987616;28;20659;-76
2021/06/21 08:43:40;;;;;;;1.17;1.17;;;;;;;21.76;82.98;99399.38;4964629;28;20220;-75
2021/06/21 08:46:06;;;;;;;1.10;0.63;;;;;;;21.87;84.23;99402.84;4965672;28;20712;-76
2021/06/21 08:48:32;;;;;;;2.60;0.70;;;;;;;21.76;80.50;99393.81;4966423;28;20260;-75
2021/06/21 08:51:03;;;;;;;1.27;0.73;;;;;;;21.78;79.67;99402.53;4990153;28;20598;-76
2021/06/21 08:53:28;;;;;;;2.80;1.80;;;;;;;21.88;83.34;99396.06;4992336;28;20247;-76
2021/06/21 08:55:54;;;;;;;2.33;1.33;;;;;;;21.97;80.55;99393.56;4992497;28;20202;-76
2021/06/21 08:58:20;;;;;;;3.23;1.63;;;;;;;22.12;81.38;99399.78;4992482;28;20174;-76
2021/06/21 09:00:45;;;;;;;1.97;1.20;;;;;;;22.37;83.05;99399.50;4992165;28;20173;-76
2021/06/21 09:03:10;;;;;;;1.43;1.23;;;;;;;22.59;80.33;99400.03;4992345;28;20186;-76
2021/06/21 09:05:36;;;;;;;0.80;0.70;;;;;;;22.62;79.59;99397.19;4991501;28;20186;-75
2021/06/21 09:08:07;;;;;;;2.57;1.20;;;;;;;22.45;78.20;99404.56;4989067;28;20181;-76
2021/06/21 09:10:38;;;;;;;3.83;1.10;;;;;;;22.74;80.35;99406.97;4991996;28;20664;-76
2021/06/21 09:13:06;;;;;;;1.70;1.10;;;;;;;22.85;78.12;99411.19;4992139;28;20259;-76
2021/06/21 09:15:33;;;;;;;4.57;1.90;;;;;;;22.96;75.45;99407.47;4992084;28;20185;-76
2021/06/21 09:18:00;;;;;;;4.43;1.17;;;;;;;23.00;76.42;99406.25;4991966;28;20564;-76
2021/06/21 09:20:26;;;;;;;0.67;0.57;;;;;;;22.96;73.50;99407.47;4991680;28;20630;-75
2021/06/21 09:22:54;;;;;;;3.40;0.87;;;;;;;23.15;77.93;99395.66;4991851;28;20659;-76
2021/06/21 09:25:19;;;;;;;1.37;1.17;;;;;;;23.44;77.24;99393.19;4991807;28;20581;-76
2021/06/21 09:27:56;;;;;;;0.80;0.80;;;;;;;23.53;72.33;99401.78;4991565;28;20265;-75
2021/06/21 09:30:23;;;;;;;1.47;1.00;;;;;;;23.12;73.07;99404.84;4991154;28;20169;-75
2021/06/21 09:32:51;;;;;;;1.13;1.07;;;;;;;22.95;75.10;99403.13;4991447;28;20213;-76
2021/06/21 09:35:26;;;;;;;1.23;1.13;;;;;;;22.82;75.43;99397.31;4974142;28;20187;-76
2021/06/21 09:37:52;;;;;;;4.27;1.30;;;;;;;22.72;75.78;99409.41;4991361;28;20177;-75
2021/06/21 09:40:25;;;;;;;1.97;1.20;;;;;;;23.06;75.38;99410.13;4991164;28;20173;-75
2021/06/21 09:42:51;;;;;;;1.80;1.10;;;;;;;23.35;74.31;99404.09;4989206;28;20169;-75
2021/06/21 09:45:20;;;;;;;1.27;1.10;;;;;;;23.58;74.29;99412.50;4990289;28;20636;-76
2021/06/21 09:47:46;;;;;;;1.80;0.90;;;;;;;23.25;72.39;99413.41;4991380;28;20547;-76
2021/06/21 09:50:15;;;;;;;0.60;0.60;;;;;;;23.11;71.68;99409.63;4990204;28;20173;-74
2021/06/21 09:52:42;;;;;;;1.60;1.37;;;;;;;23.17;73.12;99407.16;4989649;28;20201;-74
2021/06/21 09:55:14;;;;;;;1.10;0.73;;;;;;;23.23;70.82;99410.25;4985086;28;20177;-75
2021/06/21 09:57:43;;;;;;;1.60;0.50;;;;;;;23.18;70.49;99419.09;4959703;28;20184;-74
2021/06/21 10:00:11;;;;;;;2.23;1.13;;;;;;;23.38;72.33;99409.59;4990937;28;20305;-73
2021/06/21 10:02:38;;;;;;;0.60;0.60;;;;;;;23.50;70.38;99413.00;4973648;28;20180;-75
2021/06/21 10:05:05;;;;;;;12.83;1.47;;;;;;;23.51;68.70;99411.78;4988822;28;20621;-76
2021/06/21 10:07:36;;;;;;;0.47;0.47;;;;;;;23.63;70.52;99400.84;4989951;28;20660;-75
2021/06/21 10:10:05;;;;;;;1.83;1.17;;;;;;;23.55;71.53;99413.28;4990904;28;20181;-76
2021/06/21 10:12:31;;;;;;;2.07;1.23;;;;;;;23.77;71.88;99412.97;4975540;28;20208;-75
2021/06/21 10:14:57;;;;;;;2.73;1.03;;;;;;;23.59;69.98;99422.44;4991120;28;20184;-75
2021/06/21 10:17:24;;;;;;;0.73;0.50;;;;;;;23.57;70.52;99426.81;4991051;28;20185;-75
2021/06/21 10:19:49;;;;;;;1.23;0.87;;;;;;;23.58;70.72;99434.00;4990671;28;20231;-75
2021/06/21 10:22:15;;;;;;;1.87;0.87;;;;;;;23.53;69.86;99434.47;4973840;28;20183;-75
2021/06/21 10:24:41;;;;;;;1.63;1.10;;;;;;;23.47;69.13;99436.94;4991200;28;20264;-76
2021/06/21 10:27:07;;;;;;;1.60;1.10;;;;;;;23.18;70.38;99441.41;4991340;28;20592;-76
2021/06/21 10:29:34;;;;;;;2.40;0.90;;;;;;;23.13;70.55;99437.84;4991107;28;20267;-75
2021/06/21 10:32:03;;;;;;;1.33;0.90;;;;;;;22.94;70.10;99435.75;4991022;28;20297;-75
2021/06/21 10:34:29;;;;;;;0.90;0.90;;;;;;;22.81;71.75;99448.66;4991180;28;20231;-76
2021/06/21 10:36:57;;;;;;;1.33;1.23;;;;;;;22.84;72.19;99431.13;4991251;28;20181;-76
2021/06/21 10:39:25;;;;;;;0.70;0.70;;;;;;;22.83;71.15;99438.69;4991003;28;20176;-75
2021/06/21 10:42:05;;;;;;;1.30;1.20;;;;;;;22.82;70.75;99436.28;4990440;28;20187;-76
2021/06/21 10:44:38;;;;;;;1.10;1.03;;;;;;;22.81;71.25;99443.06;4983498;28;20186;-75
2021/06/21 10:47:25;;;;;;;0.83;0.80;;;;;;;22.72;71.70;99440.81;4991116;28;20649;-75
2021/06/21 10:49:59;;;;;;;1.13;1.07;;;;;;;22.62;72.12;99444.53;4991160;28;20230;-75
2021/06/21 10:52:33;;;;;;;1.13;1.03;;;;;;;22.60;73.67;99449.72;4991041;28;20227;-75
2021/06/21 10:57:54;;;;;;;0.93;0.93;;;;;;;22.73;73.11;99438.81;4991351;28;20178;-76
2021/06/21 11:00:30;;;;;;;1.43;1.20;;;;;;;22.85;72.45;99439.06;4990904;28;20261;-76
2021/06/21 11:02:55;;;;;;;2.17;1.13;;;;;;;22.88;72.98;99433.88;4991290;28;20244;-75
2021/06/21 11:05:41;;;;;;;1.10;1.00;;;;;;;22.94;73.84;99446.13;4990861;28;20602;-75
2021/06/21 11:08:19;;;;;;;1.37;0.97;;;;;;;22.93;72.09;99450.91;4993102;28;20238;-75
2021/06/21 11:10:47;;;;;;;1.13;0.90;;;;;;;23.27;71.36;99438.84;4994468;28;20624;-76
2021/06/21 11:13:37;;;;;;;0.90;0.90;;;;;;;23.63;70.38;99441.91;4994542;28;20714;-75
2021/06/21 11:16:14;;;;;;;2.87;1.20;;;;;;;23.89;70.52;99445.84;4994545;28;20183;-75
2021/06/21 11:18:39;;;;;;;0.90;0.90;;;;;;;24.20;68.44;99444.44;4994345;28;20188;-75
2021/06/21 11:21:16;;;;;;;2.60;1.73;;;;;;;24.15;67.24;99436.53;4994247;28;20185;-76
2021/06/21 11:23:45;;;;;;;0.63;0.63;;;;;;;24.00;69.62;99451.97;4988386;28;20215;-75
2021/06/21 11:26:11;;;;;;;1.83;1.13;;;;;;;23.58;68.87;99450.72;4993818;28;20179;-75
2021/06/21 11:28:50;;;;;;;1.80;1.00;;;;;;;23.46;69.72;99443.75;4994061;28;20541;-75
2021/06/21 11:31:18;;;;;;;1.00;1.00;;;;;;;23.30;69.93;99440.81;4994323;28;20190;-74
2021/06/21 11:34:01;;;;;;;0.70;0.70;;;;;;;23.24;70.01;99436.91;4994065;28;20216;-75
2021/06/21 11:36:41;;;;;;;1.07;0.97;;;;;;;23.14;70.35;99439.44;4994035;28;20208;-75
2021/06/21 11:39:27;;;;;;;0.90;0.90;;;;;;;23.23;70.02;99443.69;4993745;28;20181;-75